Time;durP1;ratioP1;P1;durP2;ratioP2;P2;SDS_P1;SDS_P2;PMS_P1;PMS_P2;Temp;Humidity;BMP_temperature;BMP_pressure;BME280_temperature;BME280_humidity;BME280_pressure;Samples;Min_cycle;Max_cycle;Signal;HPM_P1;HPM_P2
2022/06/02 00:01:18;;;;;;;0.10;0.10;;;17.40;75.00;;;;;;4207967;28;20040;-66
2022/06/02 00:03:47;;;;;;;0.00;0.00;;;17.40;75.00;;;;;;4210573;28;20048;-66
2022/06/02 00:06:18;;;;;;;0.10;0.10;;;17.40;75.00;;;;;;4210653;28;20402;-66
2022/06/02 00:08:53;;;;;;;0.00;0.00;;;17.40;75.10;;;;;;4210633;28;20051;-66
2022/06/02 00:11:29;;;;;;;0.00;0.00;;;17.40;75.10;;;;;;4209240;28;20515;-66
2022/06/02 00:14:03;;;;;;;0.00;0.00;;;17.40;76.00;;;;;;4209367;28;20083;-66
2022/06/02 00:16:33;;;;;;;0.00;0.00;;;17.40;75.20;;;;;;4207329;28;20076;-66
2022/06/02 00:19:01;;;;;;;0.00;0.00;;;17.40;75.10;;;;;;4210592;28;20070;-66
2022/06/02 00:21:31;;;;;;;0.00;0.00;;;17.40;75.10;;;;;;4209195;28;20162;-66
2022/06/02 00:24:00;;;;;;;0.52;0.52;;;17.40;75.20;;;;;;4210010;28;20097;-66
2022/06/02 00:26:39;;;;;;;0.00;0.00;;;17.30;75.00;;;;;;4208527;28;20052;-67
2022/06/02 00:29:13;;;;;;;2.85;0.52;;;17.30;75.20;;;;;;4209363;28;20054;-66
2022/06/02 00:31:46;;;;;;;0.00;0.00;;;17.30;75.20;;;;;;4208755;28;20048;-66
2022/06/02 00:34:20;;;;;;;0.00;0.00;;;17.30;75.20;;;;;;4209832;28;20059;-66
2022/06/02 00:36:52;;;;;;;0.00;0.00;;;17.30;75.20;;;;;;4209568;27;20050;-67
2022/06/02 00:39:18;;;;;;;0.00;0.00;;;17.30;75.20;;;;;;4210039;28;20062;-65
2022/06/02 00:41:47;;;;;;;0.00;0.00;;;17.30;75.20;;;;;;4193703;28;20399;-66
2022/06/02 00:44:22;;;;;;;0.00;0.00;;;17.30;75.20;;;;;;4194960;28;20105;-66
2022/06/02 00:46:58;;;;;;;0.22;0.22;;;17.30;75.20;;;;;;4209936;28;20067;-66
2022/06/02 00:49:28;;;;;;;0.10;0.10;;;17.30;75.20;;;;;;4208516;28;20044;-66
2022/06/02 00:52:03;;;;;;;0.00;0.00;;;17.30;75.20;;;;;;4209810;28;20051;-66
2022/06/02 00:57:31;;;;;;;0.00;0.00;;;17.30;76.20;;;;;;4210156;28;20105;-65
2022/06/02 01:00:05;;;;;;;0.00;0.00;;;17.30;75.30;;;;;;4207479;28;20067;-66
2022/06/02 01:02:30;;;;;;;0.00;0.00;;;17.20;75.30;;;;;;4209796;28;20051;-66
2022/06/02 01:04:59;;;;;;;0.10;0.10;;;17.20;75.30;;;;;;4209839;28;20044;-66
2022/06/02 01:07:31;;;;;;;0.15;0.15;;;17.20;75.30;;;;;;4208534;28;20515;-66
2022/06/02 01:10:26;;;;;;;0.00;0.00;;;17.20;75.30;;;;;;4207935;28;20180;-66
2022/06/02 01:13:06;;;;;;;0.00;0.00;;;17.20;75.40;;;;;;4191330;28;20041;-66
2022/06/02 01:15:40;;;;;;;0.47;0.28;;;17.20;75.40;;;;;;4201985;28;20052;-66
2022/06/02 01:18:12;;;;;;;0.10;0.10;;;17.20;75.40;;;;;;4192219;28;20106;-66
2022/06/02 01:20:49;;;;;;;0.00;0.00;;;17.20;75.40;;;;;;4192183;28;20407;-66
2022/06/02 01:23:49;;;;;;;0.40;0.40;;;17.20;75.60;;;;;;4192183;28;20439;-66
2022/06/02 01:26:34;;;;;;;0.25;0.25;;;17.20;75.70;;;;;;4208507;28;20109;-65
2022/06/02 01:29:01;;;;;;;0.00;0.00;;;17.20;75.70;;;;;;4207226;28;20127;-66
2022/06/02 01:31:35;;;;;;;0.98;0.90;;;17.20;75.70;;;;;;4208917;28;20048;-66
2022/06/02 01:34:04;;;;;;;0.00;0.00;;;17.10;75.80;;;;;;4208822;28;20078;-66
2022/06/02 01:36:33;;;;;;;0.20;0.20;;;17.10;75.90;;;;;;4208929;28;20404;-66
2022/06/02 01:39:05;;;;;;;0.00;0.00;;;17.10;76.80;;;;;;4190657;28;20063;-66
2022/06/02 01:41:38;;;;;;;0.00;0.00;;;17.10;76.00;;;;;;4192690;28;20048;-66
2022/06/02 01:44:05;;;;;;;0.00;0.00;;;17.10;76.10;;;;;;4190152;28;20047;-67
2022/06/02 01:46:42;;;;;;;0.98;0.38;;;17.10;76.10;;;;;;4190493;28;20055;-67
2022/06/02 01:49:16;;;;;;;0.00;0.00;;;17.10;76.30;;;;;;4190245;28;20483;-66
2022/06/02 01:51:51;;;;;;;0.00;0.00;;;17.10;76.30;;;;;;4191395;28;20055;-66
2022/06/02 01:54:22;;;;;;;0.00;0.00;;;17.10;76.40;;;;;;4207392;28;20052;-65
2022/06/02 01:56:56;;;;;;;;;;;17.10;76.40;;;;;;4209152;28;20616;-66
2022/06/02 01:59:44;;;;;;;0.00;0.00;;;17.10;76.40;;;;;;4206884;28;20371;-65
2022/06/02 02:02:17;;;;;;;0.00;0.00;;;17.10;76.50;;;;;;4209192;28;20449;-66
2022/06/02 02:05:03;;;;;;;0.00;0.00;;;17.00;76.50;;;;;;4208618;28;20395;-66
2022/06/02 02:07:33;;;;;;;0.03;0.03;;;17.00;76.50;;;;;;4208665;28;20043;-66
2022/06/02 02:10:02;;;;;;;0.00;0.00;;;17.00;76.60;;;;;;4208684;28;20108;-67
2022/06/02 02:12:37;;;;;;;0.00;0.00;;;17.00;76.60;;;;;;4209365;28;20040;-66
2022/06/02 02:15:20;;;;;;;0.00;0.00;;;17.00;76.60;;;;;;4205732;28;20079;-66
2022/06/02 02:18:05;;;;;;;0.00;0.00;;;17.00;76.70;;;;;;4194997;28;20049;-66
2022/06/02 02:20:31;;;;;;;0.57;0.57;;;17.00;76.80;;;;;;4208401;28;20185;-68
2022/06/02 02:23:00;;;;;;;0.00;0.00;;;17.00;76.70;;;;;;4193504;28;20476;-67
2022/06/02 02:25:29;;;;;;;0.00;0.00;;;16.90;77.60;;;;;;4189664;28;20055;-66
2022/06/02 02:28:04;;;;;;;0.00;0.00;;;17.00;76.70;;;;;;4191411;28;20051;-66
2022/06/02 02:30:31;;;;;;;0.00;0.00;;;16.90;76.70;;;;;;4208067;28;20465;-66
2022/06/02 02:32:59;;;;;;;0.10;0.10;;;17.00;76.80;;;;;;4208166;28;20059;-67
2022/06/02 02:35:28;;;;;;;0.00;0.00;;;16.90;76.80;;;;;;4208465;28;20126;-65
2022/06/02 02:37:55;;;;;;;0.00;0.00;;;16.90;76.60;;;;;;4208427;28;20566;-66
2022/06/02 02:40:24;;;;;;;0.00;0.00;;;16.90;76.60;;;;;;4208265;28;20040;-66
2022/06/02 02:42:51;;;;;;;0.00;0.00;;;16.90;76.60;;;;;;4206794;28;20048;-66
2022/06/02 02:45:33;;;;;;;0.22;0.22;;;16.90;76.60;;;;;;4208608;28;20062;-66
2022/06/02 02:48:02;;;;;;;0.32;0.32;;;16.90;76.60;;;;;;4195352;28;20138;-66
2022/06/02 02:50:30;;;;;;;0.00;0.00;;;16.90;76.60;;;;;;4193369;28;20522;-65
2022/06/02 02:52:58;;;;;;;0.00;0.00;;;16.90;76.60;;;;;;4195189;28;20064;-65
2022/06/02 02:55:24;;;;;;;0.63;0.63;;;16.90;76.60;;;;;;4195204;28;20444;-66
2022/06/02 02:57:53;;;;;;;0.10;0.10;;;16.90;76.60;;;;;;4211157;28;20050;-66
2022/06/02 03:00:20;;;;;;;0.25;0.22;;;16.90;76.70;;;;;;4211631;28;20051;-65
2022/06/02 03:02:50;;;;;;;0.00;0.00;;;16.90;76.70;;;;;;4211479;28;20101;-65
2022/06/02 03:05:19;;;;;;;0.00;0.00;;;16.90;76.70;;;;;;4211349;28;20054;-64
2022/06/02 03:07:42;;;;;;;0.00;0.00;;;16.90;76.80;;;;;;4211473;28;20101;-65
2022/06/02 03:10:09;;;;;;;0.05;0.05;;;16.80;76.70;;;;;;4211631;28;20498;-65
2022/06/02 03:12:42;;;;;;;0.00;0.00;;;16.80;76.70;;;;;;4211527;28;20044;-65
2022/06/02 03:15:18;;;;;;;0.00;0.00;;;16.80;76.70;;;;;;4210447;28;20051;-65
2022/06/02 03:17:57;;;;;;;0.20;0.20;;;16.80;76.70;;;;;;4210848;28;20541;-65
2022/06/02 03:20:22;;;;;;;0.00;0.00;;;16.80;76.70;;;;;;4210753;28;20040;-65
2022/06/02 03:23:06;;;;;;;0.00;0.00;;;16.80;76.70;;;;;;4211359;28;20051;-65
2022/06/02 03:25:35;;;;;;;0.00;0.00;;;16.80;76.70;;;;;;4194084;28;20040;-65
2022/06/02 03:28:07;;;;;;;0.00;0.00;;;16.80;76.70;;;;;;4192994;28;20052;-65
2022/06/02 03:30:38;;;;;;;0.00;0.00;;;16.80;76.70;;;;;;4193129;28;20438;-66
2022/06/02 03:33:13;;;;;;;0.00;0.00;;;16.80;76.70;;;;;;4194407;28;20439;-66
2022/06/02 03:35:47;;;;;;;0.00;0.00;;;16.80;76.70;;;;;;4177678;28;20073;-67
2022/06/02 03:38:29;;;;;;;0.00;0.00;;;16.80;76.70;;;;;;4177594;28;20057;-66
2022/06/02 03:41:06;;;;;;;0.00;0.00;;;16.80;76.70;;;;;;4194146;28;20052;-66
2022/06/02 03:43:39;;;;;;;0.00;0.00;;;16.80;76.70;;;;;;4208425;28;20059;-66
2022/06/02 03:46:16;;;;;;;0.00;0.00;;;16.80;76.70;;;;;;4200872;28;20055;-67
2022/06/02 03:48:59;;;;;;;0.00;0.00;;;16.80;76.60;;;;;;4194101;28;20404;-66
2022/06/02 03:51:29;;;;;;;0.00;0.00;;;16.80;76.60;;;;;;4210752;28;20035;-66
2022/06/02 03:54:24;;;;;;;0.00;0.00;;;16.80;76.50;;;;;;4209479;28;20504;-66
2022/06/02 03:57:01;;;;;;;0.00;0.00;;;16.80;76.50;;;;;;4196811;28;20055;-66
2022/06/02 03:59:44;;;;;;;0.30;0.30;;;16.80;76.50;;;;;;4193297;28;20045;-66
2022/06/02 04:02:09;;;;;;;0.00;0.00;;;16.80;76.50;;;;;;4209456;28;20461;-66
2022/06/02 04:04:44;;;;;;;0.00;0.00;;;16.80;76.60;;;;;;4210594;28;20434;-66
2022/06/02 04:07:26;;;;;;;0.00;0.00;;;16.80;76.60;;;;;;4210375;28;20563;-66
2022/06/02 04:09:59;;;;;;;0.00;0.00;;;16.80;76.60;;;;;;4193650;28;20559;-66
2022/06/02 04:15:48;;;;;;;0.00;0.00;;;16.80;76.60;;;;;;4203297;28;20470;-67
2022/06/02 04:18:18;;;;;;;0.00;0.00;;;16.80;76.60;;;;;;4193184;28;20381;-66
2022/06/02 04:21:04;;;;;;;0.00;0.00;;;16.80;76.60;;;;;;4191892;28;20055;-66
2022/06/02 04:24:02;;;;;;;0.00;0.00;;;16.80;76.60;;;;;;4193818;28;20047;-65
2022/06/02 04:26:41;;;;;;;0.00;0.00;;;16.80;76.60;;;;;;4194455;28;20049;-65
2022/06/02 04:29:19;;;;;;;0.00;0.00;;;16.80;76.60;;;;;;4193674;28;20121;-65
2022/06/02 04:31:55;;;;;;;0.00;0.00;;;16.80;76.60;;;;;;4209046;28;20101;-66
2022/06/02 04:34:27;;;;;;;0.22;0.22;;;16.80;76.50;;;;;;4210174;28;20533;-65
2022/06/02 04:36:59;;;;;;;0.10;0.10;;;16.80;76.60;;;;;;4209903;28;20487;-66
2022/06/02 04:39:27;;;;;;;0.00;0.00;;;16.80;76.60;;;;;;4210083;28;20472;-66
2022/06/02 04:41:59;;;;;;;0.00;0.00;;;16.90;76.60;;;;;;4199871;28;20072;-65
2022/06/02 04:44:41;;;;;;;0.00;0.00;;;16.90;76.60;;;;;;4210094;28;20136;-66
2022/06/02 04:47:14;;;;;;;0.00;0.00;;;16.90;76.60;;;;;;4193002;28;20407;-66
2022/06/02 04:49:43;;;;;;;0.00;0.00;;;16.90;76.50;;;;;;4191569;28;20048;-66
2022/06/02 04:52:14;;;;;;;0.10;0.10;;;16.90;76.50;;;;;;4193060;28;20139;-67
2022/06/02 04:54:42;;;;;;;7.05;2.17;;;16.90;76.40;;;;;;4192125;28;20036;-66
2022/06/02 04:57:12;;;;;;;0.22;0.20;;;16.90;76.40;;;;;;4204368;27;20032;-67
2022/06/02 04:59:50;;;;;;;0.00;0.00;;;16.90;76.30;;;;;;4209697;28;20040;-67
2022/06/02 05:02:22;;;;;;;0.25;0.25;;;16.90;76.40;;;;;;4210176;28;20050;-67
2022/06/02 05:04:52;;;;;;;0.00;0.00;;;16.90;76.70;;;;;;4209422;28;20044;-65
2022/06/02 05:07:21;;;;;;;0.00;0.00;;;17.00;77.30;;;;;;4209996;28;20063;-66
2022/06/02 05:09:47;;;;;;;;;;;17.10;77.70;;;;;;4210275;28;20094;-66
2022/06/02 05:12:22;;;;;;;0.00;0.00;;;17.10;77.30;;;;;;4207442;28;19990;-66
2022/06/02 05:14:50;;;;;;;0.10;0.10;;;17.10;77.20;;;;;;4209227;28;20051;-66
2022/06/02 05:17:41;;;;;;;0.00;0.00;;;17.20;77.10;;;;;;4192890;28;20094;-66
2022/06/02 05:20:18;;;;;;;0.00;0.00;;;17.20;76.70;;;;;;4192583;28;20045;-67
2022/06/02 05:23:10;;;;;;;0.00;0.00;;;17.30;76.20;;;;;;4192872;28;20076;-67
2022/06/02 05:26:07;;;;;;;0.00;0.00;;;17.40;75.60;;;;;;4192313;28;20044;-66
2022/06/02 05:29:08;;;;;;;0.10;0.10;;;17.50;75.00;;;;;;4209242;28;20498;-66
2022/06/02 05:31:55;;;;;;;0.98;0.45;;;17.50;74.70;;;;;;4208843;28;20056;-67
2022/06/02 05:34:46;;;;;;;0.00;0.00;;;17.60;75.30;;;;;;4228184;27;20054;-66
2022/06/02 05:37:22;;;;;;;0.00;0.00;;;17.60;75.80;;;;;;4192385;28;20055;-66
2022/06/02 05:40:01;;;;;;;0.10;0.10;;;17.60;75.60;;;;;;4192488;28;20340;-65
2022/06/02 05:42:33;;;;;;;0.00;0.00;;;17.60;75.30;;;;;;4208847;28;20044;-65
2022/06/02 05:45:11;;;;;;;2.33;1.42;;;17.70;75.40;;;;;;4209069;28;20130;-66
2022/06/02 05:47:53;;;;;;;0.00;0.00;;;17.70;75.40;;;;;;4209175;28;20052;-66
2022/06/02 05:50:29;;;;;;;0.32;0.32;;;17.60;75.20;;;;;;4207575;28;20586;-65
2022/06/02 05:53:00;;;;;;;0.00;0.00;;;17.60;74.90;;;;;;4192356;28;20192;-65
2022/06/02 05:55:32;;;;;;;0.10;0.10;;;17.60;75.50;;;;;;4190680;28;20060;-65
2022/06/02 05:58:07;;;;;;;1.27;0.75;;;17.60;74.50;;;;;;4175786;28;20383;-66
2022/06/02 06:00:36;;;;;;;0.10;0.10;;;17.60;74.60;;;;;;4189742;28;20133;-66
2022/06/02 06:03:32;;;;;;;0.00;0.00;;;17.50;74.50;;;;;;4194698;28;20098;-64
2022/06/02 06:06:02;;;;;;;0.73;0.40;;;17.60;74.40;;;;;;4191798;28;20102;-65
2022/06/02 06:09:02;;;;;;;0.00;0.00;;;17.50;74.30;;;;;;4208577;28;20044;-66
2022/06/02 06:11:35;;;;;;;0.00;0.00;;;17.50;74.30;;;;;;4208708;28;20051;-64
2022/06/02 06:14:17;;;;;;;0.00;0.00;;;17.50;73.70;;;;;;4208759;28;20070;-64
2022/06/02 06:16:40;;;;;;;;;;;17.50;73.30;;;;;;4209171;28;20044;-65
2022/06/02 06:19:24;;;;;;;0.43;0.40;;;17.50;73.10;;;;;;4207037;28;19962;-65
2022/06/02 06:22:02;;;;;;;0.00;0.00;;;17.50;72.60;;;;;;4191915;28;20051;-65
2022/06/02 06:24:39;;;;;;;0.00;0.00;;;17.50;72.30;;;;;;4191828;28;20054;-66
2022/06/02 06:27:08;;;;;;;0.00;0.00;;;17.50;72.30;;;;;;4191690;28;20064;-66
2022/06/02 06:29:38;;;;;;;0.00;0.00;;;17.50;72.40;;;;;;4190929;28;20048;-66
2022/06/02 06:32:09;;;;;;;1.30;1.27;;;17.50;72.30;;;;;;4191854;28;20079;-65
2022/06/02 06:34:45;;;;;;;0.00;0.00;;;17.60;72.30;;;;;;4191971;28;20051;-66
2022/06/02 06:37:49;;;;;;;0.00;0.00;;;17.60;71.90;;;;;;4190208;28;20783;-65
2022/06/02 06:40:26;;;;;;;0.00;0.00;;;17.60;72.20;;;;;;4183275;28;20068;-65
2022/06/02 06:43:04;;;;;;;0.00;0.00;;;17.70;70.70;;;;;;4192023;28;20032;-65
2022/06/02 06:45:31;;;;;;;0.00;0.00;;;17.80;70.30;;;;;;4191590;28;20048;-65
2022/06/02 06:48:00;;;;;;;0.00;0.00;;;17.80;69.90;;;;;;4191077;28;20891;-66
2022/06/02 06:50:28;;;;;;;0.00;0.00;;;17.90;69.80;;;;;;4192029;28;20040;-66
2022/06/02 06:53:39;;;;;;;0.00;0.00;;;18.00;70.50;;;;;;4195571;28;20044;-65
2022/06/02 06:56:13;;;;;;;0.00;0.00;;;18.00;68.90;;;;;;4156215;28;20108;-64
2022/06/02 06:58:46;;;;;;;0.00;0.00;;;18.10;68.70;;;;;;4201052;28;20519;-65
2022/06/02 07:01:15;;;;;;;0.00;0.00;;;18.10;68.40;;;;;;4208228;28;20149;-68
2022/06/02 07:03:49;;;;;;;0.00;0.00;;;18.10;68.10;;;;;;4206946;28;20422;-68
2022/06/02 07:06:20;;;;;;;0.00;0.00;;;18.10;67.80;;;;;;4208132;28;20109;-68
2022/06/02 07:08:49;;;;;;;0.00;0.00;;;18.10;67.80;;;;;;4208264;28;20205;-65
2022/06/02 07:13:58;;;;;;;0.00;0.00;;;18.10;67.90;;;;;;4208323;28;20048;-66
2022/06/02 07:16:28;;;;;;;6.72;1.95;;;18.10;67.60;;;;;;4195785;28;20133;-66
2022/06/02 07:18:58;;;;;;;0.00;0.00;;;18.10;68.20;;;;;;4191237;28;20562;-66
2022/06/02 07:21:29;;;;;;;0.65;0.65;;;18.10;68.80;;;;;;4191219;28;20055;-66
2022/06/02 07:24:03;;;;;;;0.00;0.00;;;18.00;68.70;;;;;;4191444;28;20127;-66
2022/06/02 07:26:41;;;;;;;0.00;0.00;;;18.00;68.30;;;;;;4190888;28;20455;-65
2022/06/02 07:29:12;;;;;;;0.00;0.00;;;18.00;68.00;;;;;;4191461;28;20048;-64
2022/06/02 07:31:57;;;;;;;0.10;0.10;;;18.00;68.10;;;;;;4191171;28;20810;-65
2022/06/02 07:34:41;;;;;;;0.00;0.00;;;18.00;69.50;;;;;;4192211;28;20102;-64
2022/06/02 07:37:20;;;;;;;0.00;0.00;;;17.90;68.90;;;;;;4194136;28;20076;-64
2022/06/02 07:40:06;;;;;;;0.00;0.00;;;17.90;69.80;;;;;;4194254;28;20056;-64
2022/06/02 07:42:58;;;;;;;0.00;0.00;;;17.90;70.30;;;;;;4209521;28;20460;-64
2022/06/02 07:45:36;;;;;;;0.00;0.00;;;17.90;70.80;;;;;;4210066;28;20056;-64
2022/06/02 07:48:40;;;;;;;0.00;0.00;;;17.90;70.20;;;;;;4210969;28;20044;-64
2022/06/02 07:51:13;;;;;;;0.00;0.00;;;17.80;69.90;;;;;;4188275;28;20578;-64
2022/06/02 07:54:07;;;;;;;0.00;0.00;;;17.80;70.00;;;;;;4193993;28;20046;-64
2022/06/02 07:56:37;;;;;;;0.00;0.00;;;17.80;70.50;;;;;;4194100;28;20415;-64
2022/06/02 07:59:16;;;;;;;0.75;0.28;;;17.80;70.40;;;;;;4193849;28;20178;-64
2022/06/02 08:02:23;;;;;;;0.00;0.00;;;17.80;70.30;;;;;;4194212;28;20044;-64
2022/06/02 08:04:58;;;;;;;0.00;0.00;;;17.80;69.90;;;;;;4193979;28;20044;-63
2022/06/02 08:07:27;;;;;;;0.00;0.00;;;17.80;69.30;;;;;;4194045;28;20479;-64
2022/06/02 08:10:03;;;;;;;0.00;0.00;;;17.80;69.20;;;;;;4193335;28;20041;-66
2022/06/02 08:12:31;;;;;;;0.00;0.00;;;17.80;69.60;;;;;;4194079;28;20047;-66
2022/06/02 08:15:07;;;;;;;0.00;0.00;;;17.80;69.90;;;;;;4193672;28;20404;-65
2022/06/02 08:17:38;;;;;;;0.10;0.10;;;17.80;70.40;;;;;;4193567;28;20052;-63
2022/06/02 08:20:08;;;;;;;;;;;17.90;70.50;;;;;;4193724;28;20494;-65
2022/06/02 08:22:39;;;;;;;0.00;0.00;;;17.90;70.60;;;;;;4193499;28;20248;-64
2022/06/02 08:25:10;;;;;;;0.00;0.00;;;17.90;70.70;;;;;;4193773;28;20080;-63
2022/06/02 08:28:01;;;;;;;0.00;0.00;;;17.90;70.40;;;;;;4208830;28;20080;-63
2022/06/02 08:30:29;;;;;;;0.00;0.00;;;17.90;70.30;;;;;;4208698;28;20056;-64
2022/06/02 08:33:37;;;;;;;0.45;0.45;;;17.90;70.50;;;;;;4210422;28;20538;-64
2022/06/02 08:36:10;;;;;;;0.00;0.00;;;17.90;69.30;;;;;;4141402;28;20058;-64
2022/06/02 08:38:49;;;;;;;0.52;0.52;;;17.90;69.20;;;;;;4141533;28;20046;-63
2022/06/02 08:41:47;;;;;;;0.00;0.00;;;17.90;69.20;;;;;;4169407;28;20144;-64
2022/06/02 08:44:47;;;;;;;0.00;0.00;;;17.90;69.60;;;;;;4194329;28;20052;-63
2022/06/02 08:47:40;;;;;;;0.00;0.00;;;17.90;69.50;;;;;;4191280;28;20126;-64
2022/06/02 08:50:21;;;;;;;0.00;0.00;;;17.90;69.70;;;;;;4192970;28;20506;-64
2022/06/02 08:53:16;;;;;;;0.00;0.00;;;17.90;69.70;;;;;;4193288;28;20051;-64
2022/06/02 08:56:06;;;;;;;0.00;0.00;;;17.90;69.80;;;;;;4192907;28;20048;-64
2022/06/02 08:58:59;;;;;;;0.15;0.15;;;18.00;69.80;;;;;;4164834;28;20052;-63
2022/06/02 09:01:50;;;;;;;0.00;0.00;;;18.00;69.80;;;;;;4195952;28;20151;-64
2022/06/02 09:04:51;;;;;;;0.00;0.00;;;18.00;69.30;;;;;;4194328;28;20143;-63
2022/06/02 09:07:40;;;;;;;0.00;0.00;;;18.10;69.60;;;;;;4192279;28;20506;-63
2022/06/02 09:10:30;;;;;;;6.03;1.75;;;18.10;69.30;;;;;;4195471;28;20364;-63
2022/06/02 09:13:18;;;;;;;0.63;0.63;;;18.10;69.30;;;;;;4192604;28;20407;-63
2022/06/02 09:16:00;;;;;;;0.00;0.00;;;18.10;69.00;;;;;;4195324;28;20048;-64
2022/06/02 09:21:06;;;;;;;0.00;0.00;;;18.20;69.10;;;;;;4207225;27;20718;-63
2022/06/02 09:23:49;;;;;;;0.00;0.00;;;18.20;69.00;;;;;;4204510;28;20108;-63
2022/06/02 09:26:30;;;;;;;24.52;1.75;;;18.30;68.70;;;;;;4206430;28;20105;-62
2022/06/02 09:29:23;;;;;;;0.00;0.00;;;18.30;68.70;;;;;;4206791;28;20048;-64
2022/06/02 09:32:12;;;;;;;0.00;0.00;;;18.30;68.60;;;;;;4206198;28;20502;-63
2022/06/02 09:35:02;;;;;;;0.00;0.00;;;18.30;68.70;;;;;;4205323;28;20457;-64
2022/06/02 09:37:55;;;;;;;0.00;0.00;;;18.40;68.80;;;;;;4203468;28;20076;-64
2022/06/02 09:40:31;;;;;;;0.00;0.00;;;18.40;68.60;;;;;;4186110;28;20049;-63
2022/06/02 09:43:26;;;;;;;0.00;0.00;;;18.40;68.50;;;;;;4198932;28;20067;-63
2022/06/02 09:46:03;;;;;;;0.10;0.10;;;18.40;68.40;;;;;;4188918;28;20056;-64
2022/06/02 09:49:01;;;;;;;0.00;0.00;;;18.40;69.10;;;;;;4202889;28;20056;-64
2022/06/02 09:51:43;;;;;;;0.00;0.00;;;18.40;68.40;;;;;;4203743;28;20135;-65
2022/06/02 09:54:34;;;;;;;0.00;0.00;;;18.40;68.40;;;;;;4204263;28;20052;-64
2022/06/02 10:00:18;;;;;;;0.00;0.00;;;18.50;68.00;;;;;;4204098;28;20726;-65
2022/06/02 10:02:49;;;;;;;0.22;0.22;;;18.50;67.80;;;;;;4204552;28;20070;-65
2022/06/02 10:05:29;;;;;;;;;;;18.50;67.70;;;;;;4204956;28;20052;-65
2022/06/02 10:08:06;;;;;;;0.00;0.00;;;18.60;67.50;;;;;;4205696;28;20382;-65
2022/06/02 10:10:45;;;;;;;1.08;0.73;;;18.60;67.40;;;;;;4204669;28;20419;-64
2022/06/02 10:13:42;;;;;;;0.00;0.00;;;18.60;68.20;;;;;;4204671;28;20101;-65
2022/06/02 10:16:35;;;;;;;0.00;0.00;;;18.60;67.30;;;;;;4204322;28;20052;-65
2022/06/02 10:19:19;;;;;;;0.15;0.15;;;18.60;67.10;;;;;;4172279;28;20901;-65
2022/06/02 10:21:52;;;;;;;0.32;0.32;;;18.60;67.10;;;;;;4194794;28;20446;-64
2022/06/02 10:24:36;;;;;;;0.00;0.00;;;18.70;67.10;;;;;;4205661;28;20098;-64
2022/06/02 10:27:21;;;;;;;0.13;0.13;;;18.70;67.20;;;;;;4204210;28;20059;-64
2022/06/02 10:30:16;;;;;;;0.00;0.00;;;18.70;67.10;;;;;;4199643;28;20033;-63
2022/06/02 10:33:07;;;;;;;0.00;0.00;;;18.70;67.00;;;;;;4176606;28;20052;-64
2022/06/02 10:36:16;;;;;;;0.10;0.10;;;18.70;66.80;;;;;;4193626;28;20054;-65
2022/06/02 10:38:49;;;;;;;0.10;0.10;;;18.70;66.80;;;;;;4194079;28;20156;-65
2022/06/02 10:41:24;;;;;;;0.00;0.00;;;18.80;67.00;;;;;;4194176;28;20126;-66
2022/06/02 10:44:10;;;;;;;0.30;0.30;;;18.80;66.90;;;;;;4194039;28;20049;-65
2022/06/02 10:47:06;;;;;;;0.20;0.20;;;18.80;66.90;;;;;;4193849;28;20086;-66
2022/06/02 10:49:38;;;;;;;0.22;0.22;;;18.80;66.90;;;;;;4193669;28;20056;-62
2022/06/02 10:52:39;;;;;;;0.30;0.30;;;18.80;66.80;;;;;;4193563;28;20052;-65
2022/06/02 10:55:35;;;;;;;0.00;0.00;;;18.90;66.80;;;;;;4192470;28;20067;-64
2022/06/02 10:58:39;;;;;;;0.00;0.00;;;18.90;66.60;;;;;;4191572;28;20052;-64
2022/06/02 11:01:41;;;;;;;0.50;0.50;;;18.90;66.40;;;;;;4186756;28;20587;-64
2022/06/02 11:04:47;;;;;;;1.38;1.30;;;18.90;66.30;;;;;;4149349;28;20052;-64
2022/06/02 11:07:52;;;;;;;1.85;0.90;;;19.00;66.30;;;;;;4192001;28;20056;-63
2022/06/02 11:10:30;;;;;;;0.73;0.73;;;19.00;66.20;;;;;;4192375;28;20052;-64
2022/06/02 11:13:39;;;;;;;0.00;0.00;;;19.00;66.20;;;;;;4205623;28;20050;-64
2022/06/02 11:16:36;;;;;;;0.73;0.68;;;19.00;66.10;;;;;;4193308;28;20510;-64
2022/06/02 11:19:32;;;;;;;0.77;0.77;;;19.00;65.90;;;;;;4208798;28;20066;-64
2022/06/02 11:22:28;;;;;;;0.00;0.00;;;19.00;65.90;;;;;;4209960;28;20048;-63
2022/06/02 11:25:35;;;;;;;0.35;0.35;;;19.10;65.90;;;;;;4192927;28;20553;-64
2022/06/02 11:28:40;;;;;;;0.05;0.05;;;19.10;65.70;;;;;;4186635;28;20102;-66
2022/06/02 11:31:22;;;;;;;0.00;0.00;;;19.10;65.40;;;;;;4177227;28;20079;-65
2022/06/02 11:34:05;;;;;;;0.90;0.88;;;19.10;65.30;;;;;;4174900;28;20106;-65
2022/06/02 11:37:16;;;;;;;0.38;0.38;;;19.10;65.20;;;;;;4175305;28;20061;-65
2022/06/02 11:40:30;;;;;;;0.00;0.00;;;19.20;65.40;;;;;;4174227;28;20045;-64
2022/06/02 11:43:12;;;;;;;0.10;0.10;;;19.20;65.10;;;;;;4153744;28;20069;-66
2022/06/02 11:46:08;;;;;;;0.00;0.00;;;19.20;65.10;;;;;;4142107;28;20061;-67
2022/06/02 11:48:59;;;;;;;0.00;0.00;;;19.20;65.00;;;;;;4177266;28;20052;-65
2022/06/02 11:51:47;;;;;;;0.00;0.00;;;19.30;65.00;;;;;;4174921;28;20634;-65
2022/06/02 11:54:29;;;;;;;0.00;0.00;;;19.30;65.00;;;;;;4177896;28;20052;-65
2022/06/02 11:57:11;;;;;;;0.00;0.00;;;19.30;65.00;;;;;;4188817;28;20110;-65
2022/06/02 12:00:07;;;;;;;0.70;0.70;;;19.30;65.00;;;;;;4174333;28;20076;-65
2022/06/02 12:02:55;;;;;;;0.47;0.47;;;19.30;65.00;;;;;;4183512;28;20048;-65
2022/06/02 12:05:41;;;;;;;0.00;0.00;;;19.30;65.00;;;;;;4184611;28;20102;-65
2022/06/02 12:08:34;;;;;;;0.70;0.70;;;19.30;64.90;;;;;;4190427;28;20452;-65
2022/06/02 12:11:24;;;;;;;0.00;0.00;;;19.30;65.90;;;;;;4175634;28;20052;-65
2022/06/02 12:14:18;;;;;;;0.47;0.47;;;19.30;64.90;;;;;;4176204;28;20079;-65
2022/06/02 12:17:07;;;;;;;0.50;0.30;;;19.30;64.80;;;;;;4189041;28;20102;-65
2022/06/02 12:19:54;;;;;;;0.00;0.00;;;19.30;65.00;;;;;;4175210;28;20488;-64
2022/06/02 12:22:46;;;;;;;0.00;0.00;;;19.30;65.10;;;;;;4172553;28;20166;-65
2022/06/02 12:25:45;;;;;;;0.45;0.45;;;19.30;64.60;;;;;;4179460;28;20061;-65
2022/06/02 12:28:27;;;;;;;0.10;0.10;;;19.30;64.90;;;;;;4172896;28;20076;-65
2022/06/02 12:31:03;;;;;;;0.38;0.38;;;19.30;64.60;;;;;;4175020;28;20063;-65
2022/06/02 12:33:41;;;;;;;0.10;0.10;;;19.40;64.60;;;;;;4175920;28;20052;-64
2022/06/02 12:36:32;;;;;;;0.00;0.00;;;19.40;64.30;;;;;;4174941;28;20063;-65
2022/06/02 12:39:17;;;;;;;0.00;0.00;;;19.40;64.40;;;;;;4174015;28;20063;-65
2022/06/02 12:42:14;;;;;;;5.05;1.25;;;19.40;64.50;;;;;;4175402;28;20297;-65
2022/06/02 12:44:58;;;;;;;0.00;0.00;;;19.50;64.50;;;;;;4161514;28;20060;-65
2022/06/02 12:47:37;;;;;;;0.00;0.00;;;19.50;64.10;;;;;;4172755;28;20053;-65
2022/06/02 12:50:28;;;;;;;0.35;0.25;;;19.50;64.30;;;;;;4177392;28;20048;-65
2022/06/02 12:53:18;;;;;;;0.00;0.00;;;19.50;64.40;;;;;;4188310;28;20151;-65
2022/06/02 12:56:04;;;;;;;0.00;0.00;;;19.50;64.40;;;;;;4187974;28;20049;-65
2022/06/02 12:59:18;;;;;;;0.00;0.00;;;19.60;64.50;;;;;;4180642;28;20041;-65
2022/06/02 13:01:51;;;;;;;0.08;0.08;;;19.60;64.00;;;;;;4179696;28;20044;-64
2022/06/02 13:04:50;;;;;;;0.10;0.10;;;19.60;64.20;;;;;;4174173;28;20049;-64
2022/06/02 13:07:47;;;;;;;0.85;0.70;;;19.60;64.20;;;;;;4177302;28;20554;-63
2022/06/02 13:10:37;;;;;;;0.00;0.00;;;19.60;64.00;;;;;;4188211;28;20055;-64
2022/06/02 13:13:33;;;;;;;0.00;0.00;;;19.70;63.90;;;;;;4174708;28;20055;-64
2022/06/02 13:16:29;;;;;;;0.00;0.00;;;19.70;63.40;;;;;;4174491;28;20048;-64
2022/06/02 13:19:32;;;;;;;0.00;0.00;;;19.70;63.40;;;;;;4174644;28;20044;-65
2022/06/02 13:22:27;;;;;;;0.00;0.00;;;19.70;63.70;;;;;;4175095;28;20406;-65
2022/06/02 13:25:24;;;;;;;0.25;0.25;;;19.80;63.70;;;;;;4179312;28;20056;-64
2022/06/02 13:28:18;;;;;;;0.00;0.00;;;19.80;63.80;;;;;;4171651;28;20405;-64
2022/06/02 13:31:11;;;;;;;0.00;0.00;;;19.80;63.80;;;;;;4181992;28;20131;-67
2022/06/02 13:34:15;;;;;;;0.00;0.00;;;19.90;63.70;;;;;;4175618;28;20048;-67
2022/06/02 13:37:00;;;;;;;0.00;0.00;;;19.90;63.50;;;;;;4158330;28;20049;-66
2022/06/02 13:39:55;;;;;;;1.00;0.90;;;19.90;63.50;;;;;;4184027;28;20057;-66
2022/06/02 13:42:54;;;;;;;0.10;0.10;;;19.90;63.50;;;;;;4182689;28;20056;-67
2022/06/02 13:45:45;;;;;;;0.00;0.00;;;19.90;63.50;;;;;;4182328;28;20076;-66
2022/06/02 13:48:49;;;;;;;0.00;0.00;;;19.90;63.00;;;;;;4179321;28;20081;-66
2022/06/02 13:52:01;;;;;;;0.00;0.00;;;20.00;62.90;;;;;;4174516;28;20075;-64
2022/06/02 13:57:42;;;;;;;0.63;0.38;;;20.00;63.50;;;;;;4174328;28;19930;-64
2022/06/02 14:00:18;;;;;;;0.00;0.00;;;20.00;64.20;;;;;;4178947;28;20504;-65
2022/06/02 14:03:10;;;;;;;0.10;0.10;;;20.10;63.20;;;;;;4182309;28;20048;-65
2022/06/02 14:05:44;;;;;;;0.10;0.10;;;20.00;63.20;;;;;;4173147;28;20095;-64
2022/06/02 14:08:32;;;;;;;0.00;0.00;;;20.00;63.10;;;;;;4177818;28;20048;-64
2022/06/02 14:11:18;;;;;;;0.38;0.38;;;20.10;62.60;;;;;;4176734;28;20503;-65
2022/06/02 14:14:06;;;;;;;0.00;0.00;;;20.10;62.60;;;;;;4176309;28;20052;-64
2022/06/02 14:16:43;;;;;;;0.10;0.10;;;20.10;62.70;;;;;;4178391;28;20123;-64